TimeMDT,TemperatureF,Dew PointF,Humidity,Sea Level PressureIn,VisibilityMPH,Wind Direction,Wind SpeedMPH,Gust SpeedMPH,PrecipitationIn,Events,Conditions,WindDirDegrees,DateUTC
12:56 AM,50.0,17.1,27,30.07,10.0,East,4.6,-,N/A,,Scattered Clouds,90,2011-10-30 06:56:00
1:56 AM,52.0,17.1,25,30.07,10.0,North,6.9,-,N/A,,Partly Cloudy,10,2011-10-30 07:56:00
2:56 AM,50.0,21.0,32,30.09,10.0,North,8.1,-,N/A,,Partly Cloudy,350,2011-10-30 08:56:00
3:56 AM,48.9,21.0,33,30.08,10.0,Calm,Calm,-,N/A,,Partly Cloudy,0,2011-10-30 09:56:00
4:56 AM,48.0,21.0,34,30.10,10.0,North,5.8,-,N/A,,Clear,350,2011-10-30 10:56:00
5:56 AM,45.0,21.0,39,30.13,10.0,Calm,Calm,-,N/A,,Clear,0,2011-10-30 11:56:00
6:56 AM,44.1,21.9,42,30.16,10.0,NW,4.6,-,N/A,,Clear,310,2011-10-30 12:56:00
7:56 AM,45.0,21.9,40,30.17,10.0,NE,8.1,-,N/A,,Clear,40,2011-10-30 13:56:00
8:56 AM,50.0,21.9,33,30.18,10.0,North,4.6,-,N/A,,Clear,360,2011-10-30 14:56:00
9:56 AM,51.1,21.9,32,30.20,10.0,North,9.2,-,N/A,,Clear,350,2011-10-30 15:56:00
10:56 AM,54.0,23.0,30,30.20,10.0,NNW,8.1,-,N/A,,Clear,340,2011-10-30 16:56:00
11:56 AM,57.9,21.9,25,30.18,10.0,North,8.1,-,N/A,,Clear,360,2011-10-30 17:56:00
12:56 PM,61.0,21.9,22,30.17,10.0,WNW,5.8,-,N/A,,Clear,300,2011-10-30 18:56:00
1:56 PM,63.0,21.9,21,30.12,10.0,Variable,5.8,-,N/A,,Clear,0,2011-10-30 19:56:00
2:56 PM,66.0,21.0,18,30.10,10.0,NNE,5.8,-,N/A,,Clear,30,2011-10-30 20:56:00
3:56 PM,66.0,21.0,18,30.09,10.0,Calm,Calm,-,N/A,,Clear,0,2011-10-30 21:56:00
4:56 PM,64.9,21.0,19,30.09,10.0,SW,3.5,-,N/A,,Clear,230,2011-10-30 22:56:00
5:56 PM,64.9,21.0,19,30.11,10.0,Calm,Calm,-,N/A,,Clear,0,2011-10-30 23:56:00
6:56 PM,60.1,21.0,22,30.14,10.0,SE,5.8,-,N/A,,Clear,140,2011-10-31 00:56:00
7:56 PM,55.0,21.9,28,30.17,10.0,SE,4.6,-,N/A,,Clear,140,2011-10-31 01:56:00
8:56 PM,54.0,21.9,29,30.17,10.0,SE,4.6,-,N/A,,Clear,140,2011-10-31 02:56:00
9:56 PM,55.9,24.1,29,30.17,10.0,Calm,Calm,-,N/A,,Clear,0,2011-10-31 03:56:00
10:56 PM,51.1,28.9,43,30.18,10.0,West,3.5,-,N/A,,Clear,270,2011-10-31 04:56:00
11:56 PM,48.0,24.1,39,30.18,10.0,East,4.6,-,N/A,,Clear,90,2011-10-31 05:56:00